sensor_id;sensor_type;location;lat;lon;timestamp;P1;durP1;ratioP1;P2;durP2;ratioP2
6642;SDS011;3357;48.050;7.800;2023-06-19T00:00:52;4.23;;;3.80;;
6642;SDS011;3357;48.050;7.800;2023-06-19T00:03:18;3.80;;;3.50;;
6642;SDS011;3357;48.050;7.800;2023-06-19T00:05:43;9.07;;;3.70;;
6642;SDS011;3357;48.050;7.800;2023-06-19T00:08:08;4.17;;;3.73;;
6642;SDS011;3357;48.050;7.800;2023-06-19T00:10:33;3.93;;;3.53;;
6642;SDS011;3357;48.050;7.800;2023-06-19T00:12:59;3.40;;;3.20;;
6642;SDS011;3357;48.050;7.800;2023-06-19T00:15:24;3.63;;;3.33;;
6642;SDS011;3357;48.050;7.800;2023-06-19T00:17:49;3.60;;;2.90;;
6642;SDS011;3357;48.050;7.800;2023-06-19T00:20:15;5.70;;;2.90;;
6642;SDS011;3357;48.050;7.800;2023-06-19T00:22:40;4.97;;;3.00;;
6642;SDS011;3357;48.050;7.800;2023-06-19T00:25:06;4.10;;;3.10;;
6642;SDS011;3357;48.050;7.800;2023-06-19T00:27:31;3.10;;;2.80;;
6642;SDS011;3357;48.050;7.800;2023-06-19T00:29:57;3.67;;;3.10;;
6642;SDS011;3357;48.050;7.800;2023-06-19T00:32:27;3.40;;;3.10;;
6642;SDS011;3357;48.050;7.800;2023-06-19T00:34:53;14.93;;;3.93;;
6642;SDS011;3357;48.050;7.800;2023-06-19T00:37:18;8.77;;;3.60;;
6642;SDS011;3357;48.050;7.800;2023-06-19T00:39:43;4.13;;;3.70;;
6642;SDS011;3357;48.050;7.800;2023-06-19T00:42:09;8.43;;;3.63;;
6642;SDS011;3357;48.050;7.800;2023-06-19T00:44:34;5.07;;;4.10;;
6642;SDS011;3357;48.050;7.800;2023-06-19T00:47:01;5.73;;;4.27;;
6642;SDS011;3357;48.050;7.800;2023-06-19T00:49:27;4.30;;;3.80;;
6642;SDS011;3357;48.050;7.800;2023-06-19T00:51:53;3.90;;;3.43;;
6642;SDS011;3357;48.050;7.800;2023-06-19T00:54:19;4.93;;;3.97;;
6642;SDS011;3357;48.050;7.800;2023-06-19T00:56:45;6.17;;;4.00;;
6642;SDS011;3357;48.050;7.800;2023-06-19T00:59:17;4.20;;;3.83;;
6642;SDS011;3357;48.050;7.800;2023-06-19T01:01:43;4.43;;;4.03;;
6642;SDS011;3357;48.050;7.800;2023-06-19T01:04:08;6.70;;;3.67;;
6642;SDS011;3357;48.050;7.800;2023-06-19T01:06:38;7.20;;;5.63;;
6642;SDS011;3357;48.050;7.800;2023-06-19T01:09:13;4.23;;;3.93;;
6642;SDS011;3357;48.050;7.800;2023-06-19T01:11:44;11.70;;;4.10;;
6642;SDS011;3357;48.050;7.800;2023-06-19T01:14:48;6.90;;;4.60;;
6642;SDS011;3357;48.050;7.800;2023-06-19T01:17:09;15.73;;;5.63;;
6642;SDS011;3357;48.050;7.800;2023-06-19T01:19:35;8.10;;;5.20;;
6642;SDS011;3357;48.050;7.800;2023-06-19T01:22:01;15.87;;;4.70;;
6642;SDS011;3357;48.050;7.800;2023-06-19T01:24:27;10.40;;;5.70;;
6642;SDS011;3357;48.050;7.800;2023-06-19T01:26:52;10.00;;;5.57;;
6642;SDS011;3357;48.050;7.800;2023-06-19T01:29:17;8.93;;;5.00;;
6642;SDS011;3357;48.050;7.800;2023-06-19T01:34:24;7.57;;;5.70;;
6642;SDS011;3357;48.050;7.800;2023-06-19T01:36:51;6.57;;;4.87;;
6642;SDS011;3357;48.050;7.800;2023-06-19T01:39:17;6.70;;;5.10;;
6642;SDS011;3357;48.050;7.800;2023-06-19T01:41:43;7.30;;;4.77;;
6642;SDS011;3357;48.050;7.800;2023-06-19T01:44:09;10.30;;;5.60;;
6642;SDS011;3357;48.050;7.800;2023-06-19T01:46:34;5.00;;;4.10;;
6642;SDS011;3357;48.050;7.800;2023-06-19T01:49:00;12.63;;;5.20;;
6642;SDS011;3357;48.050;7.800;2023-06-19T01:51:25;7.17;;;5.40;;
6642;SDS011;3357;48.050;7.800;2023-06-19T01:53:50;10.03;;;5.50;;
6642;SDS011;3357;48.050;7.800;2023-06-19T01:56:16;10.23;;;6.13;;
6642;SDS011;3357;48.050;7.800;2023-06-19T01:58:41;11.17;;;4.30;;
6642;SDS011;3357;48.050;7.800;2023-06-19T02:01:06;6.43;;;4.57;;
6642;SDS011;3357;48.050;7.800;2023-06-19T02:03:32;10.70;;;4.33;;
6642;SDS011;3357;48.050;7.800;2023-06-19T02:05:57;8.00;;;4.00;;
6642;SDS011;3357;48.050;7.800;2023-06-19T02:08:23;6.43;;;3.73;;
6642;SDS011;3357;48.050;7.800;2023-06-19T02:10:48;4.40;;;3.60;;
6642;SDS011;3357;48.050;7.800;2023-06-19T02:13:14;4.67;;;3.53;;
6642;SDS011;3357;48.050;7.800;2023-06-19T02:15:39;4.60;;;3.20;;
6642;SDS011;3357;48.050;7.800;2023-06-19T02:18:04;8.00;;;3.53;;
6642;SDS011;3357;48.050;7.800;2023-06-19T02:20:30;5.40;;;4.27;;
6642;SDS011;3357;48.050;7.800;2023-06-19T02:22:55;4.83;;;4.40;;
6642;SDS011;3357;48.050;7.800;2023-06-19T02:25:21;7.33;;;4.30;;
6642;SDS011;3357;48.050;7.800;2023-06-19T02:27:46;8.63;;;4.30;;
6642;SDS011;3357;48.050;7.800;2023-06-19T02:30:12;6.90;;;5.40;;
6642;SDS011;3357;48.050;7.800;2023-06-19T02:32:38;7.40;;;4.57;;
6642;SDS011;3357;48.050;7.800;2023-06-19T02:35:05;9.40;;;4.43;;
6642;SDS011;3357;48.050;7.800;2023-06-19T02:37:35;8.57;;;4.27;;
6642;SDS011;3357;48.050;7.800;2023-06-19T02:40:02;5.53;;;4.40;;
6642;SDS011;3357;48.050;7.800;2023-06-19T02:42:29;6.50;;;5.20;;
6642;SDS011;3357;48.050;7.800;2023-06-19T02:44:54;6.67;;;4.77;;
6642;SDS011;3357;48.050;7.800;2023-06-19T02:47:27;7.63;;;4.70;;
6642;SDS011;3357;48.050;7.800;2023-06-19T02:49:53;9.23;;;4.37;;
6642;SDS011;3357;48.050;7.800;2023-06-19T02:52:18;5.63;;;4.50;;
6642;SDS011;3357;48.050;7.800;2023-06-19T02:54:43;4.80;;;4.30;;
6642;SDS011;3357;48.050;7.800;2023-06-19T02:57:08;7.30;;;4.70;;
6642;SDS011;3357;48.050;7.800;2023-06-19T02:59:34;5.37;;;4.20;;
6642;SDS011;3357;48.050;7.800;2023-06-19T03:01:59;4.97;;;4.40;;
6642;SDS011;3357;48.050;7.800;2023-06-19T03:04:24;6.80;;;4.50;;
6642;SDS011;3357;48.050;7.800;2023-06-19T03:06:49;4.63;;;4.10;;
6642;SDS011;3357;48.050;7.800;2023-06-19T03:09:15;4.10;;;2.60;;
6642;SDS011;3357;48.050;7.800;2023-06-19T03:11:40;7.40;;;3.73;;
6642;SDS011;3357;48.050;7.800;2023-06-19T03:14:06;2.63;;;2.47;;
6642;SDS011;3357;48.050;7.800;2023-06-19T03:16:33;5.43;;;3.17;;
6642;SDS011;3357;48.050;7.800;2023-06-19T03:18:59;3.20;;;2.90;;
6642;SDS011;3357;48.050;7.800;2023-06-19T03:21:24;2.83;;;2.63;;
6642;SDS011;3357;48.050;7.800;2023-06-19T03:23:49;3.77;;;3.47;;
6642;SDS011;3357;48.050;7.800;2023-06-19T03:26:15;7.70;;;4.20;;
6642;SDS011;3357;48.050;7.800;2023-06-19T03:28:40;3.70;;;3.20;;
6642;SDS011;3357;48.050;7.800;2023-06-19T03:31:05;2.90;;;2.60;;
6642;SDS011;3357;48.050;7.800;2023-06-19T03:33:30;8.80;;;3.67;;
6642;SDS011;3357;48.050;7.800;2023-06-19T03:35:56;4.97;;;3.70;;
6642;SDS011;3357;48.050;7.800;2023-06-19T03:38:21;5.87;;;3.20;;
6642;SDS011;3357;48.050;7.800;2023-06-19T03:40:47;2.93;;;2.70;;
6642;SDS011;3357;48.050;7.800;2023-06-19T03:43:12;3.63;;;2.83;;
6642;SDS011;3357;48.050;7.800;2023-06-19T03:45:37;3.90;;;3.40;;
6642;SDS011;3357;48.050;7.800;2023-06-19T03:48:03;3.83;;;3.40;;
6642;SDS011;3357;48.050;7.800;2023-06-19T03:50:28;4.07;;;3.23;;
6642;SDS011;3357;48.050;7.800;2023-06-19T03:52:53;3.53;;;3.30;;
6642;SDS011;3357;48.050;7.800;2023-06-19T03:55:19;3.27;;;3.03;;
6642;SDS011;3357;48.050;7.800;2023-06-19T03:57:44;3.60;;;3.40;;
6642;SDS011;3357;48.050;7.800;2023-06-19T04:00:09;6.40;;;3.40;;
6642;SDS011;3357;48.050;7.800;2023-06-19T04:02:38;4.77;;;4.00;;
6642;SDS011;3357;48.050;7.800;2023-06-19T04:05:03;3.77;;;3.33;;
6642;SDS011;3357;48.050;7.800;2023-06-19T04:07:29;3.90;;;3.60;;
6642;SDS011;3357;48.050;7.800;2023-06-19T04:09:56;4.00;;;3.70;;
6642;SDS011;3357;48.050;7.800;2023-06-19T04:12:21;3.90;;;3.37;;
6642;SDS011;3357;48.050;7.800;2023-06-19T04:14:47;4.70;;;3.60;;
6642;SDS011;3357;48.050;7.800;2023-06-19T04:17:13;5.13;;;3.50;;
6642;SDS011;3357;48.050;7.800;2023-06-19T04:19:39;4.10;;;3.80;;
6642;SDS011;3357;48.050;7.800;2023-06-19T04:22:04;8.43;;;6.43;;
6642;SDS011;3357;48.050;7.800;2023-06-19T04:24:29;4.37;;;4.00;;
6642;SDS011;3357;48.050;7.800;2023-06-19T04:26:55;4.80;;;3.67;;
6642;SDS011;3357;48.050;7.800;2023-06-19T04:29:20;4.17;;;3.83;;
6642;SDS011;3357;48.050;7.800;2023-06-19T04:31:45;4.27;;;3.97;;
6642;SDS011;3357;48.050;7.800;2023-06-19T04:34:15;3.87;;;3.57;;
6642;SDS011;3357;48.050;7.800;2023-06-19T04:36:41;4.80;;;4.30;;
6642;SDS011;3357;48.050;7.800;2023-06-19T04:39:06;6.23;;;4.23;;
6642;SDS011;3357;48.050;7.800;2023-06-19T04:41:32;6.57;;;4.47;;
6642;SDS011;3357;48.050;7.800;2023-06-19T04:43:57;4.60;;;3.87;;
6642;SDS011;3357;48.050;7.800;2023-06-19T04:46:22;6.37;;;4.90;;
6642;SDS011;3357;48.050;7.800;2023-06-19T04:48:48;6.53;;;4.73;;
6642;SDS011;3357;48.050;7.800;2023-06-19T04:51:16;6.90;;;4.67;;
6642;SDS011;3357;48.050;7.800;2023-06-19T04:53:45;5.23;;;4.67;;
6642;SDS011;3357;48.050;7.800;2023-06-19T04:56:11;6.03;;;5.43;;
6642;SDS011;3357;48.050;7.800;2023-06-19T04:58:36;5.03;;;4.50;;
6642;SDS011;3357;48.050;7.800;2023-06-19T05:01:08;5.33;;;4.83;;
6642;SDS011;3357;48.050;7.800;2023-06-19T05:03:35;6.60;;;5.20;;
6642;SDS011;3357;48.050;7.800;2023-06-19T05:06:00;5.13;;;4.73;;
6642;SDS011;3357;48.050;7.800;2023-06-19T05:08:25;6.03;;;4.70;;
6642;SDS011;3357;48.050;7.800;2023-06-19T05:10:51;6.70;;;5.20;;
6642;SDS011;3357;48.050;7.800;2023-06-19T05:13:16;7.53;;;5.27;;
6642;SDS011;3357;48.050;7.800;2023-06-19T05:15:43;5.50;;;5.00;;
6642;SDS011;3357;48.050;7.800;2023-06-19T05:18:08;10.43;;;5.57;;
6642;SDS011;3357;48.050;7.800;2023-06-19T05:20:33;5.20;;;4.70;;
6642;SDS011;3357;48.050;7.800;2023-06-19T05:22:59;8.13;;;6.03;;
6642;SDS011;3357;48.050;7.800;2023-06-19T05:25:24;6.73;;;5.97;;
6642;SDS011;3357;48.050;7.800;2023-06-19T05:27:49;7.40;;;5.93;;
6642;SDS011;3357;48.050;7.800;2023-06-19T05:30:14;7.33;;;5.90;;
6642;SDS011;3357;48.050;7.800;2023-06-19T05:32:40;8.93;;;5.80;;
6642;SDS011;3357;48.050;7.800;2023-06-19T05:35:05;7.47;;;5.50;;
6642;SDS011;3357;48.050;7.800;2023-06-19T05:37:31;7.50;;;5.40;;
6642;SDS011;3357;48.050;7.800;2023-06-19T05:39:56;5.53;;;5.00;;
6642;SDS011;3357;48.050;7.800;2023-06-19T05:42:22;5.43;;;4.10;;
6642;SDS011;3357;48.050;7.800;2023-06-19T05:44:47;5.30;;;4.57;;
6642;SDS011;3357;48.050;7.800;2023-06-19T05:47:20;4.57;;;4.27;;
6642;SDS011;3357;48.050;7.800;2023-06-19T05:49:45;4.57;;;4.17;;
6642;SDS011;3357;48.050;7.800;2023-06-19T05:52:11;6.40;;;5.17;;
6642;SDS011;3357;48.050;7.800;2023-06-19T05:54:37;7.83;;;5.87;;
6642;SDS011;3357;48.050;7.800;2023-06-19T05:57:02;10.00;;;5.23;;
6642;SDS011;3357;48.050;7.800;2023-06-19T05:59:27;16.30;;;5.60;;
6642;SDS011;3357;48.050;7.800;2023-06-19T06:01:53;7.73;;;6.00;;
6642;SDS011;3357;48.050;7.800;2023-06-19T06:04:18;5.87;;;5.37;;
6642;SDS011;3357;48.050;7.800;2023-06-19T06:06:46;6.40;;;5.80;;
6642;SDS011;3357;48.050;7.800;2023-06-19T06:09:12;8.80;;;5.77;;
6642;SDS011;3357;48.050;7.800;2023-06-19T06:11:38;6.50;;;5.40;;
6642;SDS011;3357;48.050;7.800;2023-06-19T06:14:03;5.27;;;4.77;;
6642;SDS011;3357;48.050;7.800;2023-06-19T06:16:28;13.07;;;5.53;;
6642;SDS011;3357;48.050;7.800;2023-06-19T06:18:54;6.43;;;4.90;;
6642;SDS011;3357;48.050;7.800;2023-06-19T06:21:19;4.53;;;4.20;;
6642;SDS011;3357;48.050;7.800;2023-06-19T06:23:44;9.00;;;4.83;;
6642;SDS011;3357;48.050;7.800;2023-06-19T06:26:10;5.43;;;4.93;;
6642;SDS011;3357;48.050;7.800;2023-06-19T06:28:35;5.63;;;5.13;;
6642;SDS011;3357;48.050;7.800;2023-06-19T06:31:00;6.10;;;5.50;;
6642;SDS011;3357;48.050;7.800;2023-06-19T06:33:26;7.57;;;4.90;;
6642;SDS011;3357;48.050;7.800;2023-06-19T06:35:53;7.77;;;4.93;;
6642;SDS011;3357;48.050;7.800;2023-06-19T06:38:22;5.57;;;5.00;;
6642;SDS011;3357;48.050;7.800;2023-06-19T06:40:47;9.47;;;5.80;;
6642;SDS011;3357;48.050;7.800;2023-06-19T06:43:12;5.43;;;4.90;;
6642;SDS011;3357;48.050;7.800;2023-06-19T06:45:38;6.43;;;4.57;;
6642;SDS011;3357;48.050;7.800;2023-06-19T06:48:04;5.93;;;5.30;;
6642;SDS011;3357;48.050;7.800;2023-06-19T06:50:30;5.83;;;5.30;;
6642;SDS011;3357;48.050;7.800;2023-06-19T06:52:57;4.80;;;4.40;;
6642;SDS011;3357;48.050;7.800;2023-06-19T06:55:22;5.23;;;4.80;;
6642;SDS011;3357;48.050;7.800;2023-06-19T06:57:47;5.20;;;4.50;;
6642;SDS011;3357;48.050;7.800;2023-06-19T07:00:13;5.23;;;4.73;;
6642;SDS011;3357;48.050;7.800;2023-06-19T07:02:38;6.23;;;4.90;;
6642;SDS011;3357;48.050;7.800;2023-06-19T07:05:06;5.50;;;5.00;;
6642;SDS011;3357;48.050;7.800;2023-06-19T07:07:32;4.70;;;4.30;;
6642;SDS011;3357;48.050;7.800;2023-06-19T07:09:57;7.40;;;4.10;;
6642;SDS011;3357;48.050;7.800;2023-06-19T07:12:22;5.57;;;5.07;;
6642;SDS011;3357;48.050;7.800;2023-06-19T07:14:47;4.93;;;4.50;;
6642;SDS011;3357;48.050;7.800;2023-06-19T07:17:13;5.43;;;4.13;;
6642;SDS011;3357;48.050;7.800;2023-06-19T07:19:38;6.30;;;4.53;;
6642;SDS011;3357;48.050;7.800;2023-06-19T07:22:03;5.83;;;4.40;;
6642;SDS011;3357;48.050;7.800;2023-06-19T07:24:29;4.70;;;4.30;;
6642;SDS011;3357;48.050;7.800;2023-06-19T07:26:54;5.60;;;4.97;;
6642;SDS011;3357;48.050;7.800;2023-06-19T07:29:19;5.57;;;4.60;;
6642;SDS011;3357;48.050;7.800;2023-06-19T07:31:46;8.67;;;4.37;;
6642;SDS011;3357;48.050;7.800;2023-06-19T07:34:12;5.23;;;4.73;;
6642;SDS011;3357;48.050;7.800;2023-06-19T07:36:38;5.03;;;3.97;;
6642;SDS011;3357;48.050;7.800;2023-06-19T07:39:04;10.83;;;5.30;;
6642;SDS011;3357;48.050;7.800;2023-06-19T07:41:29;5.03;;;4.10;;
6642;SDS011;3357;48.050;7.800;2023-06-19T07:43:55;4.67;;;4.23;;
6642;SDS011;3357;48.050;7.800;2023-06-19T07:46:20;4.20;;;3.80;;
6642;SDS011;3357;48.050;7.800;2023-06-19T07:48:45;4.37;;;4.07;;
6642;SDS011;3357;48.050;7.800;2023-06-19T07:51:11;4.60;;;4.20;;
6642;SDS011;3357;48.050;7.800;2023-06-19T07:53:36;5.70;;;4.33;;
6642;SDS011;3357;48.050;7.800;2023-06-19T07:56:01;3.80;;;3.50;;
6642;SDS011;3357;48.050;7.800;2023-06-19T07:58:26;4.70;;;4.30;;
6642;SDS011;3357;48.050;7.800;2023-06-19T08:00:52;8.93;;;3.97;;
6642;SDS011;3357;48.050;7.800;2023-06-19T08:03:17;10.60;;;4.10;;
6642;SDS011;3357;48.050;7.800;2023-06-19T08:05:42;4.53;;;4.13;;
6642;SDS011;3357;48.050;7.800;2023-06-19T08:08:08;4.47;;;4.07;;
6642;SDS011;3357;48.050;7.800;2023-06-19T08:10:33;5.90;;;4.47;;
6642;SDS011;3357;48.050;7.800;2023-06-19T08:12:58;4.97;;;4.53;;
6642;SDS011;3357;48.050;7.800;2023-06-19T08:15:25;4.03;;;3.77;;
6642;SDS011;3357;48.050;7.800;2023-06-19T08:17:50;3.60;;;3.40;;
6642;SDS011;3357;48.050;7.800;2023-06-19T08:20:15;4.67;;;4.27;;
6642;SDS011;3357;48.050;7.800;2023-06-19T08:22:40;3.90;;;3.70;;
6642;SDS011;3357;48.050;7.800;2023-06-19T08:25:06;4.60;;;4.20;;
6642;SDS011;3357;48.050;7.800;2023-06-19T08:27:31;4.60;;;3.73;;
6642;SDS011;3357;48.050;7.800;2023-06-19T08:29:57;4.83;;;3.70;;
6642;SDS011;3357;48.050;7.800;2023-06-19T08:32:22;4.23;;;3.83;;
6642;SDS011;3357;48.050;7.800;2023-06-19T08:34:47;6.80;;;3.97;;
6642;SDS011;3357;48.050;7.800;2023-06-19T08:37:12;4.47;;;3.87;;
6642;SDS011;3357;48.050;7.800;2023-06-19T08:39:38;4.77;;;4.40;;
6642;SDS011;3357;48.050;7.800;2023-06-19T08:42:07;3.97;;;3.53;;
6642;SDS011;3357;48.050;7.800;2023-06-19T08:44:36;4.37;;;4.03;;
6642;SDS011;3357;48.050;7.800;2023-06-19T08:47:02;4.90;;;4.40;;
6642;SDS011;3357;48.050;7.800;2023-06-19T08:49:34;4.30;;;3.90;;
6642;SDS011;3357;48.050;7.800;2023-06-19T08:52:03;7.93;;;4.50;;
6642;SDS011;3357;48.050;7.800;2023-06-19T08:54:29;4.90;;;4.30;;
6642;SDS011;3357;48.050;7.800;2023-06-19T08:56:54;4.10;;;3.77;;
6642;SDS011;3357;48.050;7.800;2023-06-19T08:59:20;4.43;;;4.00;;
6642;SDS011;3357;48.050;7.800;2023-06-19T09:01:49;6.73;;;4.03;;
6642;SDS011;3357;48.050;7.800;2023-06-19T09:04:18;6.27;;;3.90;;
6642;SDS011;3357;48.050;7.800;2023-06-19T09:06:51;7.10;;;3.90;;
6642;SDS011;3357;48.050;7.800;2023-06-19T09:09:21;4.07;;;3.63;;
6642;SDS011;3357;48.050;7.800;2023-06-19T09:11:57;3.80;;;3.53;;
6642;SDS011;3357;48.050;7.800;2023-06-19T09:14:34;3.23;;;3.03;;
6642;SDS011;3357;48.050;7.800;2023-06-19T09:17:01;3.87;;;3.57;;
6642;SDS011;3357;48.050;7.800;2023-06-19T09:19:27;3.70;;;3.40;;
6642;SDS011;3357;48.050;7.800;2023-06-19T09:21:52;3.57;;;3.37;;
6642;SDS011;3357;48.050;7.800;2023-06-19T09:24:17;5.90;;;3.67;;
6642;SDS011;3357;48.050;7.800;2023-06-19T09:26:42;4.67;;;3.77;;
6642;SDS011;3357;48.050;7.800;2023-06-19T09:31:37;3.93;;;3.30;;
6642;SDS011;3357;48.050;7.800;2023-06-19T09:34:04;4.60;;;3.40;;
6642;SDS011;3357;48.050;7.800;2023-06-19T09:36:30;3.57;;;3.37;;
6642;SDS011;3357;48.050;7.800;2023-06-19T09:38:57;5.30;;;3.60;;
6642;SDS011;3357;48.050;7.800;2023-06-19T09:41:24;3.33;;;3.03;;
6642;SDS011;3357;48.050;7.800;2023-06-19T09:43:50;3.43;;;3.13;;
6642;SDS011;3357;48.050;7.800;2023-06-19T09:46:22;3.70;;;3.40;;
6642;SDS011;3357;48.050;7.800;2023-06-19T09:48:52;3.13;;;2.87;;
6642;SDS011;3357;48.050;7.800;2023-06-19T09:51:20;3.33;;;3.13;;
6642;SDS011;3357;48.050;7.800;2023-06-19T09:53:49;3.27;;;2.93;;
6642;SDS011;3357;48.050;7.800;2023-06-19T09:56:15;3.70;;;3.40;;
6642;SDS011;3357;48.050;7.800;2023-06-19T09:58:41;5.23;;;3.13;;
6642;SDS011;3357;48.050;7.800;2023-06-19T10:01:08;3.43;;;2.80;;
6642;SDS011;3357;48.050;7.800;2023-06-19T10:03:34;4.17;;;2.77;;
6642;SDS011;3357;48.050;7.800;2023-06-19T10:06:01;10.10;;;2.90;;
6642;SDS011;3357;48.050;7.800;2023-06-19T10:08:27;3.20;;;2.90;;
6642;SDS011;3357;48.050;7.800;2023-06-19T10:10:55;3.00;;;2.80;;
6642;SDS011;3357;48.050;7.800;2023-06-19T10:13:21;3.80;;;3.30;;
6642;SDS011;3357;48.050;7.800;2023-06-19T10:15:56;9.40;;;3.20;;
6642;SDS011;3357;48.050;7.800;2023-06-19T10:18:21;3.40;;;3.13;;
6642;SDS011;3357;48.050;7.800;2023-06-19T10:20:49;5.67;;;3.50;;
6642;SDS011;3357;48.050;7.800;2023-06-19T10:23:18;4.30;;;4.00;;
6642;SDS011;3357;48.050;7.800;2023-06-19T10:25:49;3.53;;;3.33;;
6642;SDS011;3357;48.050;7.800;2023-06-19T10:28:33;6.87;;;3.93;;
6642;SDS011;3357;48.050;7.800;2023-06-19T10:31:02;3.40;;;3.10;;
6642;SDS011;3357;48.050;7.800;2023-06-19T10:33:32;3.90;;;3.60;;
6642;SDS011;3357;48.050;7.800;2023-06-19T10:35:59;2.67;;;2.57;;
6642;SDS011;3357;48.050;7.800;2023-06-19T10:38:25;4.37;;;3.37;;
6642;SDS011;3357;48.050;7.800;2023-06-19T10:40:51;3.63;;;3.43;;
6642;SDS011;3357;48.050;7.800;2023-06-19T10:43:20;3.67;;;3.30;;
6642;SDS011;3357;48.050;7.800;2023-06-19T10:45:47;3.10;;;3.00;;
6642;SDS011;3357;48.050;7.800;2023-06-19T10:48:17;3.10;;;2.90;;
6642;SDS011;3357;48.050;7.800;2023-06-19T10:50:44;3.60;;;3.40;;
6642;SDS011;3357;48.050;7.800;2023-06-19T10:53:09;5.77;;;3.13;;
6642;SDS011;3357;48.050;7.800;2023-06-19T10:55:34;4.20;;;3.20;;
6642;SDS011;3357;48.050;7.800;2023-06-19T10:58:00;3.30;;;3.10;;
6642;SDS011;3357;48.050;7.800;2023-06-19T11:00:29;2.90;;;2.70;;
6642;SDS011;3357;48.050;7.800;2023-06-19T11:02:56;5.03;;;3.10;;
6642;SDS011;3357;48.050;7.800;2023-06-19T11:05:23;4.23;;;3.90;;
6642;SDS011;3357;48.050;7.800;2023-06-19T11:07:58;4.10;;;3.80;;
6642;SDS011;3357;48.050;7.800;2023-06-19T11:10:25;4.37;;;3.80;;
6642;SDS011;3357;48.050;7.800;2023-06-19T11:12:55;3.60;;;3.40;;
6642;SDS011;3357;48.050;7.800;2023-06-19T11:15:31;6.20;;;3.57;;
6642;SDS011;3357;48.050;7.800;2023-06-19T11:17:58;3.60;;;3.37;;
6642;SDS011;3357;48.050;7.800;2023-06-19T11:20:24;3.47;;;3.20;;
6642;SDS011;3357;48.050;7.800;2023-06-19T11:22:54;3.40;;;3.20;;
6642;SDS011;3357;48.050;7.800;2023-06-19T11:25:23;3.63;;;3.33;;
6642;SDS011;3357;48.050;7.800;2023-06-19T11:27:49;4.10;;;3.70;;
6642;SDS011;3357;48.050;7.800;2023-06-19T11:30:17;3.63;;;3.33;;
6642;SDS011;3357;48.050;7.800;2023-06-19T11:32:55;3.33;;;3.13;;
6642;SDS011;3357;48.050;7.800;2023-06-19T11:35:20;4.47;;;3.00;;
6642;SDS011;3357;48.050;7.800;2023-06-19T11:37:46;3.43;;;3.23;;
6642;SDS011;3357;48.050;7.800;2023-06-19T11:40:13;3.10;;;2.90;;
6642;SDS011;3357;48.050;7.800;2023-06-19T11:42:51;3.10;;;2.90;;
6642;SDS011;3357;48.050;7.800;2023-06-19T11:45:17;3.23;;;3.03;;
6642;SDS011;3357;48.050;7.800;2023-06-19T11:47:43;4.20;;;3.33;;
6642;SDS011;3357;48.050;7.800;2023-06-19T11:50:11;3.80;;;3.53;;
6642;SDS011;3357;48.050;7.800;2023-06-19T11:52:38;3.60;;;3.40;;
6642;SDS011;3357;48.050;7.800;2023-06-19T11:55:04;3.83;;;3.63;;
6642;SDS011;3357;48.050;7.800;2023-06-19T11:57:30;3.50;;;3.20;;
6642;SDS011;3357;48.050;7.800;2023-06-19T11:59:55;4.90;;;3.33;;
6642;SDS011;3357;48.050;7.800;2023-06-19T12:02:20;3.43;;;3.20;;
6642;SDS011;3357;48.050;7.800;2023-06-19T12:04:45;4.50;;;3.33;;
6642;SDS011;3357;48.050;7.800;2023-06-19T12:07:11;3.90;;;3.60;;
6642;SDS011;3357;48.050;7.800;2023-06-19T12:09:36;5.03;;;3.73;;
6642;SDS011;3357;48.050;7.800;2023-06-19T12:12:02;6.60;;;3.10;;
6642;SDS011;3357;48.050;7.800;2023-06-19T12:14:28;3.93;;;3.73;;
6642;SDS011;3357;48.050;7.800;2023-06-19T12:16:53;4.03;;;3.63;;
6642;SDS011;3357;48.050;7.800;2023-06-19T12:19:18;4.03;;;3.60;;
6642;SDS011;3357;48.050;7.800;2023-06-19T12:21:44;3.97;;;3.67;;
6642;SDS011;3357;48.050;7.800;2023-06-19T12:24:09;3.13;;;2.93;;
6642;SDS011;3357;48.050;7.800;2023-06-19T12:26:35;3.20;;;3.00;;
6642;SDS011;3357;48.050;7.800;2023-06-19T12:29:02;3.03;;;2.83;;
6642;SDS011;3357;48.050;7.800;2023-06-19T12:31:28;3.87;;;3.57;;
6642;SDS011;3357;48.050;7.800;2023-06-19T12:33:54;4.83;;;3.90;;
6642;SDS011;3357;48.050;7.800;2023-06-19T12:36:19;3.20;;;3.00;;
6642;SDS011;3357;48.050;7.800;2023-06-19T12:38:44;3.63;;;3.33;;
6642;SDS011;3357;48.050;7.800;2023-06-19T12:41:11;5.07;;;3.77;;
6642;SDS011;3357;48.050;7.800;2023-06-19T12:43:36;4.40;;;4.10;;
6642;SDS011;3357;48.050;7.800;2023-06-19T12:46:01;4.03;;;3.67;;
6642;SDS011;3357;48.050;7.800;2023-06-19T12:48:27;3.70;;;3.40;;
6642;SDS011;3357;48.050;7.800;2023-06-19T12:50:53;3.00;;;2.80;;
6642;SDS011;3357;48.050;7.800;2023-06-19T12:53:18;3.63;;;3.33;;
6642;SDS011;3357;48.050;7.800;2023-06-19T12:55:44;3.30;;;3.10;;
6642;SDS011;3357;48.050;7.800;2023-06-19T12:58:09;3.70;;;3.50;;
6642;SDS011;3357;48.050;7.800;2023-06-19T13:00:36;7.50;;;3.37;;
6642;SDS011;3357;48.050;7.800;2023-06-19T13:03:01;3.00;;;2.87;;
6642;SDS011;3357;48.050;7.800;2023-06-19T13:05:27;3.50;;;3.20;;
6642;SDS011;3357;48.050;7.800;2023-06-19T13:07:52;3.33;;;3.20;;
6642;SDS011;3357;48.050;7.800;2023-06-19T13:10:17;3.40;;;3.20;;
6642;SDS011;3357;48.050;7.800;2023-06-19T13:12:43;3.87;;;3.40;;
6642;SDS011;3357;48.050;7.800;2023-06-19T13:15:08;4.07;;;3.47;;
6642;SDS011;3357;48.050;7.800;2023-06-19T13:17:34;3.60;;;3.30;;
6642;SDS011;3357;48.050;7.800;2023-06-19T13:19:59;7.17;;;3.70;;
6642;SDS011;3357;48.050;7.800;2023-06-19T13:22:24;3.50;;;3.30;;
6642;SDS011;3357;48.050;7.800;2023-06-19T13:24:50;4.00;;;3.40;;
6642;SDS011;3357;48.050;7.800;2023-06-19T13:27:16;4.83;;;3.40;;
6642;SDS011;3357;48.050;7.800;2023-06-19T13:29:41;4.00;;;3.60;;
6642;SDS011;3357;48.050;7.800;2023-06-19T13:32:06;3.30;;;3.10;;
6642;SDS011;3357;48.050;7.800;2023-06-19T13:34:32;3.80;;;3.50;;
6642;SDS011;3357;48.050;7.800;2023-06-19T13:36:57;3.93;;;3.63;;
6642;SDS011;3357;48.050;7.800;2023-06-19T13:39:22;3.77;;;3.57;;
6642;SDS011;3357;48.050;7.800;2023-06-19T13:41:48;4.27;;;3.60;;
6642;SDS011;3357;48.050;7.800;2023-06-19T13:44:13;3.57;;;3.27;;
6642;SDS011;3357;48.050;7.800;2023-06-19T13:46:39;3.90;;;3.53;;
6642;SDS011;3357;48.050;7.800;2023-06-19T13:49:04;4.60;;;4.10;;
6642;SDS011;3357;48.050;7.800;2023-06-19T13:51:29;4.23;;;3.83;;
6642;SDS011;3357;48.050;7.800;2023-06-19T13:53:55;4.90;;;3.40;;
6642;SDS011;3357;48.050;7.800;2023-06-19T13:56:20;3.43;;;3.23;;
6642;SDS011;3357;48.050;7.800;2023-06-19T13:58:45;4.00;;;3.50;;
6642;SDS011;3357;48.050;7.800;2023-06-19T14:01:11;3.73;;;3.33;;
6642;SDS011;3357;48.050;7.800;2023-06-19T14:03:36;4.80;;;3.53;;
6642;SDS011;3357;48.050;7.800;2023-06-19T14:06:02;4.50;;;3.67;;
6642;SDS011;3357;48.050;7.800;2023-06-19T14:08:28;3.60;;;3.40;;
6642;SDS011;3357;48.050;7.800;2023-06-19T14:10:54;4.07;;;3.87;;
6642;SDS011;3357;48.050;7.800;2023-06-19T14:13:20;5.07;;;4.00;;
6642;SDS011;3357;48.050;7.800;2023-06-19T14:15:45;3.80;;;3.60;;
6642;SDS011;3357;48.050;7.800;2023-06-19T14:18:10;4.43;;;3.80;;
6642;SDS011;3357;48.050;7.800;2023-06-19T14:20:36;7.30;;;3.63;;
6642;SDS011;3357;48.050;7.800;2023-06-19T14:23:01;4.00;;;3.70;;
6642;SDS011;3357;48.050;7.800;2023-06-19T14:25:26;3.80;;;3.60;;
6642;SDS011;3357;48.050;7.800;2023-06-19T14:27:52;4.93;;;4.23;;
6642;SDS011;3357;48.050;7.800;2023-06-19T14:30:17;4.23;;;3.60;;
6642;SDS011;3357;48.050;7.800;2023-06-19T14:32:43;3.77;;;3.57;;
6642;SDS011;3357;48.050;7.800;2023-06-19T14:35:09;4.60;;;3.50;;
6642;SDS011;3357;48.050;7.800;2023-06-19T14:37:34;6.03;;;3.97;;
6642;SDS011;3357;48.050;7.800;2023-06-19T14:40:00;4.20;;;3.90;;
6642;SDS011;3357;48.050;7.800;2023-06-19T14:42:25;8.70;;;4.53;;
6642;SDS011;3357;48.050;7.800;2023-06-19T14:44:50;10.17;;;4.63;;
6642;SDS011;3357;48.050;7.800;2023-06-19T14:47:16;4.80;;;4.40;;
6642;SDS011;3357;48.050;7.800;2023-06-19T14:49:41;5.73;;;4.40;;
6642;SDS011;3357;48.050;7.800;2023-06-19T14:52:06;4.70;;;4.40;;
6642;SDS011;3357;48.050;7.800;2023-06-19T14:54:32;4.43;;;4.20;;
6642;SDS011;3357;48.050;7.800;2023-06-19T14:56:57;4.50;;;4.10;;
6642;SDS011;3357;48.050;7.800;2023-06-19T14:59:22;5.70;;;4.23;;
6642;SDS011;3357;48.050;7.800;2023-06-19T15:01:49;4.57;;;4.13;;
6642;SDS011;3357;48.050;7.800;2023-06-19T15:04:14;4.67;;;4.37;;
6642;SDS011;3357;48.050;7.800;2023-06-19T15:06:40;4.90;;;4.40;;
6642;SDS011;3357;48.050;7.800;2023-06-19T15:09:05;4.30;;;4.00;;
6642;SDS011;3357;48.050;7.800;2023-06-19T15:11:30;5.37;;;4.07;;
6642;SDS011;3357;48.050;7.800;2023-06-19T15:13:56;4.70;;;4.30;;